Time;durP1;ratioP1;P1;durP2;ratioP2;P2;SDS_P1;SDS_P2;PMS_P1;PMS_P2;Temp;Humidity;BMP_temperature;BMP_pressure;BME280_temperature;BME280_humidity;BME280_pressure;Samples;Min_cycle;Max_cycle;Signal;HPM_P1;HPM_P2
2021/04/09 00:01:41;;;;;;;6.85;3.42;;;;;;;;;;5093220;28;20028;-70
2021/04/09 00:04:07;;;;;;;7.45;3.35;;;;;;;;;;5093350;28;20473;-70
2021/04/09 00:06:33;;;;;;;6.82;3.65;;;;;;;;;;5092322;28;20024;-70
2021/04/09 00:08:59;;;;;;;7.63;3.15;;;;;;;;;;5093324;28;20031;-70
2021/04/09 00:11:26;;;;;;;6.18;2.63;;;;;;;;;;5093030;28;20024;-71
2021/04/09 00:13:52;;;;;;;10.48;2.60;;;;;;;;;;5093088;28;20540;-70
2021/04/09 00:16:18;;;;;;;6.28;3.53;;;;;;;;;;5092952;28;20032;-70
2021/04/09 00:18:44;;;;;;;6.30;2.60;;;;;;;;;;5092700;28;20028;-69
2021/04/09 00:21:10;;;;;;;10.75;3.50;;;;;;;;;;5092976;28;20020;-70
2021/04/09 00:23:37;;;;;;;6.32;2.40;;;;;;;;;;5093024;28;20046;-70
2021/04/09 00:26:04;;;;;;;7.80;2.75;;;;;;;;;;5092454;28;20499;-70
2021/04/09 00:28:30;;;;;;;4.35;2.05;;;;;;;;;;5092775;28;20024;-71
2021/04/09 00:30:57;;;;;;;5.05;2.60;;;;;;;;;;5092988;28;20134;-70
2021/04/09 00:33:23;;;;;;;6.18;2.55;;;;;;;;;;5092447;28;20035;-70
2021/04/09 00:35:49;;;;;;;8.55;3.08;;;;;;;;;;5092746;28;20028;-70
2021/04/09 00:38:15;;;;;;;8.85;3.35;;;;;;;;;;5092548;28;20522;-70
2021/04/09 00:40:42;;;;;;;5.95;2.38;;;;;;;;;;5092274;28;20024;-70
2021/04/09 00:43:09;;;;;;;9.15;3.42;;;;;;;;;;5092613;28;20103;-70
2021/04/09 00:45:36;;;;;;;11.55;4.20;;;;;;;;;;5092650;28;20023;-70
2021/04/09 00:48:02;;;;;;;9.07;3.72;;;;;;;;;;5092202;28;20032;-70
2021/04/09 00:50:28;;;;;;;12.40;3.95;;;;;;;;;;5092696;28;20071;-70
2021/04/09 00:52:55;;;;;;;10.48;4.28;;;;;;;;;;5092591;28;20059;-70
2021/04/09 00:55:22;;;;;;;11.65;4.07;;;;;;;;;;5092106;28;20417;-70
2021/04/09 00:57:48;;;;;;;7.28;3.60;;;;;;;;;;5092306;28;20051;-70
2021/04/09 01:00:15;;;;;;;10.35;3.95;;;;;;;;;;5092474;28;20031;-70
2021/04/09 01:02:41;;;;;;;8.00;3.97;;;;;;;;;;5092095;28;20099;-70
2021/04/09 01:05:12;;;;;;;6.38;3.03;;;;;;;;;;5092357;28;20024;-70
2021/04/09 01:07:41;;;;;;;7.25;2.95;;;;;;;;;;5091969;28;20031;-70
2021/04/09 01:10:08;;;;;;;8.38;3.00;;;;;;;;;;5092452;28;20024;-70
2021/04/09 01:12:34;;;;;;;7.55;2.70;;;;;;;;;;5092429;28;20028;-69
2021/04/09 01:15:01;;;;;;;4.82;2.75;;;;;;;;;;5091925;28;20560;-69
2021/04/09 01:17:32;;;;;;;7.40;3.72;;;;;;;;;;5092249;28;20115;-70
2021/04/09 01:20:13;;;;;;;10.77;4.40;;;;;;;;;;5096041;28;20027;-69
2021/04/09 01:23:02;;;;;;;14.07;3.92;;;;;;;;;;5095992;28;20031;-69
2021/04/09 01:25:47;;;;;;;10.82;3.92;;;;;;;;;;5049559;28;20538;-70
2021/04/09 01:28:17;;;;;;;7.85;3.60;;;;;;;;;;5096161;28;20028;-69
2021/04/09 01:30:52;;;;;;;6.93;3.17;;;;;;;;;;5096024;28;20423;-70
2021/04/09 01:33:19;;;;;;;6.47;2.72;;;;;;;;;;5096285;28;20031;-71
2021/04/09 01:35:46;;;;;;;6.35;2.42;;;;;;;;;;5095967;28;20437;-70
2021/04/09 01:38:13;;;;;;;7.50;2.70;;;;;;;;;;5095938;28;20051;-69
2021/04/09 01:40:41;;;;;;;7.65;3.53;;;;;;;;;;5095968;28;20024;-70
2021/04/09 01:43:09;;;;;;;10.27;4.75;;;;;;;;;;5095475;28;20024;-69
2021/04/09 01:45:37;;;;;;;10.18;4.20;;;;;;;;;;5095961;28;20020;-69
2021/04/09 01:48:04;;;;;;;9.88;4.07;;;;;;;;;;5095903;28;20480;-70
2021/04/09 01:50:31;;;;;;;14.25;4.90;;;;;;;;;;5095586;28;20039;-70
2021/04/09 01:52:58;;;;;;;12.10;5.03;;;;;;;;;;5095879;28;20027;-70
2021/04/09 01:55:25;;;;;;;12.50;4.70;;;;;;;;;;5095651;28;20047;-70
2021/04/09 01:57:52;;;;;;;6.88;3.13;;;;;;;;;;5095070;28;20055;-70
2021/04/09 02:00:21;;;;;;;12.35;4.35;;;;;;;;;;5077402;28;20024;-69
2021/04/09 02:02:48;;;;;;;9.30;3.67;;;;;;;;;;5095509;28;20041;-69
2021/04/09 02:05:18;;;;;;;14.13;5.40;;;;;;;;;;5095224;28;20027;-69
2021/04/09 02:07:46;;;;;;;10.00;3.92;;;;;;;;;;5095530;28;20026;-69
2021/04/09 02:10:16;;;;;;;11.30;4.15;;;;;;;;;;5095657;28;20020;-69
2021/04/09 02:12:43;;;;;;;7.13;3.30;;;;;;;;;;5095107;28;20024;-69
2021/04/09 02:15:10;;;;;;;10.32;4.45;;;;;;;;;;5095345;28;20027;-69
2021/04/09 02:17:42;;;;;;;7.80;3.33;;;;;;;;;;5095236;28;20024;-69
2021/04/09 02:20:10;;;;;;;8.70;3.90;;;;;;;;;;5094899;28;20464;-69
2021/04/09 02:22:37;;;;;;;9.98;3.10;;;;;;;;;;5095464;28;20289;-69
2021/04/09 02:25:03;;;;;;;9.93;4.15;;;;;;;;;;5094912;28;20066;-69
2021/04/09 02:27:29;;;;;;;7.72;3.58;;;;;;;;;;5095123;28;20431;-69
2021/04/09 02:29:55;;;;;;;8.85;4.25;;;;;;;;;;5094770;28;20396;-69
2021/04/09 02:32:22;;;;;;;12.75;5.35;;;;;;;;;;5094849;28;20051;-70
2021/04/09 02:34:49;;;;;;;11.57;5.43;;;;;;;;;;5094929;28;20507;-69
2021/04/09 02:37:15;;;;;;;11.65;5.35;;;;;;;;;;5094913;28;20043;-69
2021/04/09 02:39:42;;;;;;;10.02;5.38;;;;;;;;;;5094594;28;20023;-69
2021/04/09 02:42:09;;;;;;;10.05;5.28;;;;;;;;;;5094872;28;20098;-69
2021/04/09 02:44:35;;;;;;;8.88;4.40;;;;;;;;;;5095045;28;20350;-69
2021/04/09 02:47:13;;;;;;;10.60;4.30;;;;;;;;;;5094366;28;20095;-69
2021/04/09 02:49:41;;;;;;;9.25;4.38;;;;;;;;;;5094848;28;20487;-69
2021/04/09 02:52:13;;;;;;;8.18;3.42;;;;;;;;;;5095129;28;20021;-70
2021/04/09 02:54:39;;;;;;;9.57;4.05;;;;;;;;;;5094264;28;20028;-69
2021/04/09 02:57:06;;;;;;;9.13;4.00;;;;;;;;;;5094236;28;20401;-69
2021/04/09 02:59:32;;;;;;;11.50;4.28;;;;;;;;;;5094539;28;20102;-69
2021/04/09 03:01:59;;;;;;;9.45;4.90;;;;;;;;;;5094072;28;20481;-69
2021/04/09 03:04:27;;;;;;;14.95;6.28;;;;;;;;;;5094430;28;20023;-69
2021/04/09 03:06:53;;;;;;;14.98;5.75;;;;;;;;;;5094355;28;20484;-70
2021/04/09 03:25:42;;;;;;;16.50;7.57;;;;;;;;;;5130519;27;20432;-66
2021/04/09 03:28:08;;;;;;;16.95;8.52;;;;;;;;;;5111624;28;20631;-66
2021/04/09 03:30:35;;;;;;;19.50;9.25;;;;;;;;;;5130561;28;20555;-66
2021/04/09 03:33:01;;;;;;;20.23;9.52;;;;;;;;;;5112054;28;20077;-66
2021/04/09 03:35:27;;;;;;;21.98;11.07;;;;;;;;;;5129889;28;20026;-66
2021/04/09 03:37:53;;;;;;;19.00;9.70;;;;;;;;;;5130285;28;20419;-66
2021/04/09 03:40:20;;;;;;;19.85;9.50;;;;;;;;;;5130295;28;20434;-66
2021/04/09 03:42:46;;;;;;;16.55;8.07;;;;;;;;;;5129716;28;20031;-66
2021/04/09 03:45:13;;;;;;;13.88;6.00;;;;;;;;;;5130147;28;20019;-66
2021/04/09 03:47:39;;;;;;;14.75;6.80;;;;;;;;;;5111595;28;20483;-66
2021/04/09 03:50:06;;;;;;;21.17;8.57;;;;;;;;;;5129590;28;20102;-66
2021/04/09 03:52:33;;;;;;;18.33;8.60;;;;;;;;;;5130115;28;20054;-66
2021/04/09 03:54:59;;;;;;;14.90;7.03;;;;;;;;;;5129910;28;20031;-66
2021/04/09 03:57:25;;;;;;;16.65;7.68;;;;;;;;;;5129636;28;20016;-66
2021/04/09 03:59:51;;;;;;;19.55;8.65;;;;;;;;;;5111417;28;20015;-66
2021/04/09 04:02:17;;;;;;;12.52;6.38;;;;;;;;;;5129810;28;20019;-66
2021/04/09 04:04:44;;;;;;;22.48;10.98;;;;;;;;;;5111040;28;20485;-66
2021/04/09 04:07:10;;;;;;;30.90;14.65;;;;;;;;;;5129708;28;20034;-66
2021/04/09 04:09:36;;;;;;;28.63;13.52;;;;;;;;;;5129797;28;20023;-66
2021/04/09 04:12:05;;;;;;;26.38;11.68;;;;;;;;;;5111105;28;20039;-66
2021/04/09 04:14:31;;;;;;;79.10;26.88;;;;;;;;;;5111219;28;20085;-66
2021/04/09 04:16:58;;;;;;;25.13;11.93;;;;;;;;;;5111125;28;20023;-66
2021/04/09 04:19:24;;;;;;;15.18;8.35;;;;;;;;;;5110811;28;20504;-66
2021/04/09 04:21:51;;;;;;;16.35;8.48;;;;;;;;;;5129724;28;20034;-66
2021/04/09 04:24:17;;;;;;;21.65;9.30;;;;;;;;;;5128708;28;20047;-66
2021/04/09 04:26:43;;;;;;;15.40;8.13;;;;;;;;;;5096729;28;20030;-66
2021/04/09 04:29:09;;;;;;;16.00;8.32;;;;;;;;;;5114596;28;20038;-66
2021/04/09 04:31:36;;;;;;;20.20;9.90;;;;;;;;;;5115220;28;20398;-66
2021/04/09 04:34:02;;;;;;;24.23;11.23;;;;;;;;;;5113749;28;20079;-66
2021/04/09 04:36:28;;;;;;;25.17;11.23;;;;;;;;;;5113669;28;20069;-66
2021/04/09 04:38:54;;;;;;;26.10;12.48;;;;;;;;;;5113011;28;20447;-66
2021/04/09 04:41:21;;;;;;;19.95;10.20;;;;;;;;;;5095091;28;20022;-66
2021/04/09 04:43:47;;;;;;;21.40;9.27;;;;;;;;;;5113482;28;20022;-66
2021/04/09 04:46:13;;;;;;;18.35;7.57;;;;;;;;;;5113258;28;20035;-66
2021/04/09 04:48:39;;;;;;;18.73;7.60;;;;;;;;;;5114325;28;20028;-66
2021/04/09 04:51:06;;;;;;;16.77;9.20;;;;;;;;;;5095076;28;20068;-66
2021/04/09 04:53:32;;;;;;;17.05;6.00;;;;;;;;;;5112802;28;20088;-66
2021/04/09 04:55:58;;;;;;;17.67;5.97;;;;;;;;;;5113163;28;20308;-66
2021/04/09 04:58:24;;;;;;;15.82;8.40;;;;;;;;;;5113081;28;20473;-66
2021/04/09 05:00:50;;;;;;;17.60;8.43;;;;;;;;;;5112631;28;20080;-66
2021/04/09 05:03:17;;;;;;;17.50;9.07;;;;;;;;;;5113049;28;20066;-66
2021/04/09 05:05:43;;;;;;;16.52;7.68;;;;;;;;;;5113517;28;20045;-66
2021/04/09 05:08:09;;;;;;;20.40;9.48;;;;;;;;;;5114575;28;20586;-66
2021/04/09 05:10:35;;;;;;;32.85;16.60;;;;;;;;;;5115048;28;20080;-66
2021/04/09 05:13:01;;;;;;;28.88;13.10;;;;;;;;;;5096483;28;20030;-66
2021/04/09 05:15:28;;;;;;;37.67;15.68;;;;;;;;;;5114296;28;20035;-66
2021/04/09 05:17:54;;;;;;;33.10;14.95;;;;;;;;;;5114658;28;20027;-66
2021/04/09 05:20:20;;;;;;;32.78;16.05;;;;;;;;;;5114309;28;20529;-66
2021/04/09 05:22:46;;;;;;;38.28;16.17;;;;;;;;;;5114529;28;20099;-66
2021/04/09 05:25:12;;;;;;;50.15;22.20;;;;;;;;;;5096096;28;20414;-66
2021/04/09 05:27:39;;;;;;;29.50;16.05;;;;;;;;;;5114173;28;20020;-66
2021/04/09 05:30:05;;;;;;;25.13;11.05;;;;;;;;;;5096228;28;20024;-66
2021/04/09 05:32:32;;;;;;;37.40;19.80;;;;;;;;;;5114593;28;20024;-66
2021/04/09 05:34:58;;;;;;;25.67;14.27;;;;;;;;;;5113842;28;20514;-66
2021/04/09 05:37:24;;;;;;;26.13;13.27;;;;;;;;;;5113298;28;20054;-67
2021/04/09 05:39:50;;;;;;;22.50;11.90;;;;;;;;;;5095890;28;20118;-66
2021/04/09 05:42:16;;;;;;;25.83;13.60;;;;;;;;;;5095422;28;20437;-66
2021/04/09 05:44:43;;;;;;;20.75;11.05;;;;;;;;;;5114066;28;20480;-66
2021/04/09 05:47:10;;;;;;;42.25;20.67;;;;;;;;;;5114200;28;20412;-66
2021/04/09 05:49:37;;;;;;;34.63;17.58;;;;;;;;;;5113950;28;20016;-67
2021/04/09 05:52:05;;;;;;;33.97;15.68;;;;;;;;;;5095998;28;20039;-67
2021/04/09 05:54:31;;;;;;;32.97;16.98;;;;;;;;;;5113812;28;20035;-67
2021/04/09 05:56:59;;;;;;;40.67;18.45;;;;;;;;;;5113508;28;20069;-67
2021/04/09 05:59:25;;;;;;;41.28;21.02;;;;;;;;;;5113757;28;20023;-67
2021/04/09 06:01:51;;;;;;;42.25;22.63;;;;;;;;;;5113754;28;20099;-68
2021/04/09 06:04:18;;;;;;;36.08;19.08;;;;;;;;;;5113285;28;20027;-69
2021/04/09 06:06:44;;;;;;;26.30;14.13;;;;;;;;;;5112060;28;20148;-68
2021/04/09 06:09:10;;;;;;;26.95;14.88;;;;;;;;;;5095181;28;20048;-67
2021/04/09 06:11:36;;;;;;;21.73;11.02;;;;;;;;;;5113133;28;20028;-67
2021/04/09 06:14:02;;;;;;;23.42;11.95;;;;;;;;;;5113441;28;20052;-67
2021/04/09 06:16:29;;;;;;;22.88;11.68;;;;;;;;;;5094992;28;20380;-68
2021/04/09 06:18:55;;;;;;;62.03;32.20;;;;;;;;;;5112948;28;20058;-68
2021/04/09 06:21:21;;;;;;;36.40;19.35;;;;;;;;;;5113322;28;20027;-67
2021/04/09 06:23:48;;;;;;;25.58;13.65;;;;;;;;;;5112646;28;20040;-67
2021/04/09 06:26:14;;;;;;;21.67;11.95;;;;;;;;;;5094398;28;20024;-66
2021/04/09 06:28:41;;;;;;;18.15;8.18;;;;;;;;;;5113474;28;20027;-66
2021/04/09 06:31:07;;;;;;;15.70;6.57;;;;;;;;;;5111774;27;20118;-67
2021/04/09 06:33:35;;;;;;;18.08;9.48;;;;;;;;;;5114293;27;20047;-66
2021/04/09 06:36:01;;;;;;;22.52;10.02;;;;;;;;;;5111017;28;20012;-67
2021/04/09 06:38:29;;;;;;;19.63;8.35;;;;;;;;;;5093103;28;20476;-67
2021/04/09 06:40:55;;;;;;;13.35;6.22;;;;;;;;;;5094666;28;20019;-68
2021/04/09 06:43:23;;;;;;;14.98;6.93;;;;;;;;;;5113012;28;20088;-67
2021/04/09 06:45:50;;;;;;;20.30;8.35;;;;;;;;;;5094096;28;20111;-67
2021/04/09 06:48:16;;;;;;;11.57;6.18;;;;;;;;;;5111834;28;20098;-67
2021/04/09 06:50:43;;;;;;;30.38;15.20;;;;;;;;;;5111201;28;20023;-70
2021/04/09 06:53:12;;;;;;;19.88;11.07;;;;;;;;;;5110523;28;20020;-70
2021/04/09 06:55:40;;;;;;;16.02;7.72;;;;;;;;;;5110574;28;20023;-70
2021/04/09 06:58:07;;;;;;;15.95;8.27;;;;;;;;;;5110780;28;20035;-70
2021/04/09 07:01:07;;;;;;;23.50;11.35;;;;;;;;;;5092207;28;20026;-69
2021/04/09 07:03:34;;;;;;;15.07;7.63;;;;;;;;;;5110926;28;20030;-68
2021/04/09 07:06:01;;;;;;;14.40;6.22;;;;;;;;;;5111504;28;20028;-70
2021/04/09 07:08:29;;;;;;;12.35;7.07;;;;;;;;;;5092108;28;20500;-70
2021/04/09 07:10:55;;;;;;;15.77;7.90;;;;;;;;;;5111844;28;20024;-69
2021/04/09 07:13:22;;;;;;;16.35;8.32;;;;;;;;;;5093134;28;20023;-71
2021/04/09 07:15:48;;;;;;;17.52;8.57;;;;;;;;;;5109794;28;20051;-70
2021/04/09 07:18:17;;;;;;;12.65;7.40;;;;;;;;;;5110689;28;20022;-71
2021/04/09 07:20:44;;;;;;;22.80;14.63;;;;;;;;;;5110250;28;20027;-70
2021/04/09 07:23:11;;;;;;;19.15;9.52;;;;;;;;;;5110846;28;20020;-70
2021/04/09 07:25:40;;;;;;;16.13;9.77;;;;;;;;;;5110930;28;20071;-71
2021/04/09 07:28:09;;;;;;;14.00;7.85;;;;;;;;;;5115811;28;20028;-74
2021/04/09 07:30:35;;;;;;;14.23;8.00;;;;;;;;;;5112531;28;20050;-71
2021/04/09 07:33:06;;;;;;;11.57;6.50;;;;;;;;;;5130428;28;20472;-72
2021/04/09 07:35:52;;;;;;;12.05;5.45;;;;;;;;;;5113053;28;20452;-71
2021/04/09 07:38:34;;;;;;;9.32;4.10;;;;;;;;;;5132224;28;20027;-70
2021/04/09 07:41:07;;;;;;;6.07;3.45;;;;;;;;;;5131837;28;20051;-69
2021/04/09 07:43:35;;;;;;;9.18;4.20;;;;;;;;;;5113780;28;20492;-72
2021/04/09 07:46:04;;;;;;;12.02;7.07;;;;;;;;;;5132567;28;20027;-70
2021/04/09 07:48:35;;;;;;;14.50;8.00;;;;;;;;;;5112602;28;20027;-70
2021/04/09 07:51:02;;;;;;;11.77;5.47;;;;;;;;;;5128680;28;21055;-71
2021/04/09 07:53:30;;;;;;;8.15;4.10;;;;;;;;;;5117915;28;20081;-70
2021/04/09 07:56:10;;;;;;;10.05;6.03;;;;;;;;;;5111394;28;20042;-72
2021/04/09 07:58:38;;;;;;;9.98;5.72;;;;;;;;;;5114961;28;20100;-71
2021/04/09 08:01:23;;;;;;;9.00;3.97;;;;;;;;;;5098322;28;20032;-70
2021/04/09 08:03:50;;;;;;;7.57;4.20;;;;;;;;;;5093534;28;20137;-68
2021/04/09 08:06:20;;;;;;;5.28;2.97;;;;;;;;;;5095735;28;20089;-68
2021/04/09 08:08:49;;;;;;;5.88;3.13;;;;;;;;;;5094332;28;20097;-71
2021/04/09 08:11:18;;;;;;;13.30;5.65;;;;;;;;;;5093734;28;20430;-69
2021/04/09 08:13:44;;;;;;;10.02;4.35;;;;;;;;;;5092905;28;20024;-68
2021/04/09 08:16:30;;;;;;;11.25;4.07;;;;;;;;;;5093108;28;20056;-68
2021/04/09 08:18:57;;;;;;;8.13;4.60;;;;;;;;;;5093526;28;20073;-69
2021/04/09 08:21:23;;;;;;;8.30;3.78;;;;;;;;;;5093443;28;20054;-68
2021/04/09 08:23:49;;;;;;;7.45;3.85;;;;;;;;;;5091732;28;20047;-68
2021/04/09 08:26:15;;;;;;;10.68;3.42;;;;;;;;;;5093745;28;20466;-68
2021/04/09 08:28:42;;;;;;;9.80;4.35;;;;;;;;;;5092516;28;20039;-69
2021/04/09 08:31:08;;;;;;;10.57;4.72;;;;;;;;;;5094808;28;20020;-68
2021/04/09 08:33:34;;;;;;;10.32;3.92;;;;;;;;;;5093612;28;20049;-68
2021/04/09 08:36:01;;;;;;;12.23;5.07;;;;;;;;;;5119229;27;20031;-68
2021/04/09 08:38:27;;;;;;;10.15;4.82;;;;;;;;;;5118056;27;20015;-68
2021/04/09 08:40:54;;;;;;;13.98;5.28;;;;;;;;;;5102422;27;20027;-68
2021/04/09 08:43:20;;;;;;;11.40;4.47;;;;;;;;;;5101513;27;20049;-68
2021/04/09 08:45:47;;;;;;;11.48;4.10;;;;;;;;;;5102876;27;20027;-67
2021/04/09 08:48:13;;;;;;;7.18;3.13;;;;;;;;;;5120412;27;20457;-67
2021/04/09 08:50:42;;;;;;;10.32;4.18;;;;;;;;;;5118890;27;20384;-67
2021/04/09 08:53:09;;;;;;;9.85;4.25;;;;;;;;;;5120470;27;20057;-67
2021/04/09 08:57:04;;;;;;;17.00;7.80;;;;;;;;;;5109022;27;20389;-69
2021/04/09 08:59:39;;;;;;;27.17;11.32;;;;;;;;;;5108917;28;20111;-69
2021/04/09 09:02:24;;;;;;;13.00;5.22;;;;;;;;;;5109279;28;20098;-69
2021/04/09 09:05:12;;;;;;;15.05;6.00;;;;;;;;;;5107158;28;20024;-70
2021/04/09 09:07:44;;;;;;;5.03;2.38;;;;;;;;;;5093499;28;20067;-70
2021/04/09 09:13:21;;;;;;;8.80;3.78;;;;;;;;;;5109748;28;20546;-69
2021/04/09 09:15:47;;;;;;;11.35;5.45;;;;;;;;;;5108485;28;20115;-68
2021/04/09 09:18:20;;;;;;;7.72;4.10;;;;;;;;;;5108483;28;20024;-69
2021/04/09 09:22:10;;;;;;;10.27;3.97;;;;;;;;;;5110461;27;20404;-69
2021/04/09 09:24:56;;;;;;;19.17;9.10;;;;;;;;;;5106360;28;20089;-70
2021/04/09 09:28:10;;;;;;;14.95;6.43;;;;;;;;;;5092040;27;20897;-71
2021/04/09 09:32:00;;;;;;;9.63;4.03;;;;;;;;;;5108824;27;20392;-69
2021/04/09 09:34:27;;;;;;;8.50;4.65;;;;;;;;;;5109608;28;20041;-69
2021/04/09 09:39:39;;;;;;;8.13;4.22;;;;;;;;;;5110220;27;20389;-70
2021/04/09 09:42:41;;;;;;;7.78;3.30;;;;;;;;;;5087611;27;20394;-70
2021/04/09 09:45:09;;;;;;;8.23;3.28;;;;;;;;;;5088481;28;20039;-69
2021/04/09 09:52:02;;;;;;;7.32;3.17;;;;;;;;;;5110332;27;20419;-70
2021/04/09 09:54:30;;;;;;;6.95;3.05;;;;;;;;;;5108567;28;20024;-68
2021/04/09 09:56:57;;;;;;;19.15;11.30;;;;;;;;;;5108614;28;20486;-71
2021/04/09 10:01:26;;;;;;;8.38;3.65;;;;;;;;;;5048003;28;20446;-72
2021/04/09 10:03:53;;;;;;;10.23;4.45;;;;;;;;;;5048109;28;20090;-71
2021/04/09 10:06:55;;;;;;;5.60;2.50;;;;;;;;;;5068888;28;20384;-71
2021/04/09 10:09:25;;;;;;;10.82;5.70;;;;;;;;;;5068689;28;20064;-69
2021/04/09 10:11:51;;;;;;;14.15;5.50;;;;;;;;;;5069272;28;20017;-69
2021/04/09 10:14:18;;;;;;;9.45;4.32;;;;;;;;;;5069443;28;20021;-68
2021/04/09 10:16:44;;;;;;;12.38;5.10;;;;;;;;;;5069289;28;20104;-67
2021/04/09 10:19:11;;;;;;;8.52;3.58;;;;;;;;;;5069492;28;20025;-68
2021/04/09 10:22:36;;;;;;;7.65;2.83;;;;;;;;;;5110107;27;20381;-71
2021/04/09 10:25:02;;;;;;;7.80;2.90;;;;;;;;;;5109564;28;20028;-70
2021/04/09 10:27:28;;;;;;;6.82;2.50;;;;;;;;;;5110103;28;20420;-71
2021/04/09 10:29:54;;;;;;;11.88;4.70;;;;;;;;;;5109621;28;20030;-69
2021/04/09 10:32:25;;;;;;;9.25;3.55;;;;;;;;;;5108807;28;20020;-68
2021/04/09 10:34:52;;;;;;;6.07;3.00;;;;;;;;;;5108907;28;20048;-70
2021/04/09 10:38:37;;;;;;;7.93;3.20;;;;;;;;;;5109819;27;20389;-71
2021/04/09 10:41:03;;;;;;;7.93;3.90;;;;;;;;;;5108668;28;20019;-69
2021/04/09 10:43:36;;;;;;;7.70;3.97;;;;;;;;;;5110203;28;20106;-69
2021/04/09 10:47:33;;;;;;;7.47;3.47;;;;;;;;;;5110219;27;20944;-69
2021/04/09 10:49:59;;;;;;;8.48;3.80;;;;;;;;;;5109038;28;20024;-69
2021/04/09 10:54:24;;;;;;;7.22;3.50;;;;;;;;;;5112645;27;20397;-68
2021/04/09 10:56:51;;;;;;;7.20;2.92;;;;;;;;;;5110246;28;20031;-68
2021/04/09 11:00:02;;;;;;;3.67;1.90;;;;;;;;;;5130450;27;20104;-69
2021/04/09 11:02:29;;;;;;;7.68;3.60;;;;;;;;;;5110286;28;20032;-69
2021/04/09 11:04:56;;;;;;;7.25;3.22;;;;;;;;;;5105712;28;20094;-69
2021/04/09 11:07:40;;;;;;;8.13;3.70;;;;;;;;;;5109480;28;20428;-67
2021/04/09 11:10:06;;;;;;;5.18;2.35;;;;;;;;;;5109789;28;20047;-67
2021/04/09 11:13:31;;;;;;;12.00;4.80;;;;;;;;;;5109246;27;20436;-66
2021/04/09 11:15:57;;;;;;;10.07;3.30;;;;;;;;;;5110054;28;20051;-67
2021/04/09 11:18:24;;;;;;;9.60;4.50;;;;;;;;;;5108455;28;20107;-67
2021/04/09 11:20:50;;;;;;;6.60;2.97;;;;;;;;;;5107894;28;20027;-67
2021/04/09 11:25:00;;;;;;;9.70;4.55;;;;;;;;;;5109688;27;20404;-67
2021/04/09 11:27:30;;;;;;;13.57;7.57;;;;;;;;;;5109255;28;20073;-67
2021/04/09 11:30:07;;;;;;;10.88;5.32;;;;;;;;;;5109848;28;20085;-67
2021/04/09 11:32:54;;;;;;;15.05;3.97;;;;;;;;;;5110096;28;20020;-67
2021/04/09 11:35:24;;;;;;;11.85;5.28;;;;;;;;;;5089116;28;20420;-66
2021/04/09 11:37:54;;;;;;;11.27;5.78;;;;;;;;;;5089954;28;20083;-66
2021/04/09 11:40:38;;;;;;;11.57;4.40;;;;;;;;;;5087435;28;20123;-67
2021/04/09 11:44:30;;;;;;;8.63;4.43;;;;;;;;;;5109958;27;20384;-66
2021/04/09 11:47:15;;;;;;;3.88;1.80;;;;;;;;;;5109927;28;20085;-67
2021/04/09 11:49:42;;;;;;;12.68;5.28;;;;;;;;;;5109666;28;20028;-66
2021/04/09 11:52:09;;;;;;;5.80;2.83;;;;;;;;;;5109640;28;20020;-67
2021/04/09 11:54:36;;;;;;;4.18;1.45;;;;;;;;;;5107924;28;20028;-67
2021/04/09 11:57:02;;;;;;;8.25;4.28;;;;;;;;;;5109353;28;20109;-67
2021/04/09 11:59:33;;;;;;;14.30;7.82;;;;;;;;;;5109610;28;20604;-67
2021/04/09 12:02:14;;;;;;;7.80;3.80;;;;;;;;;;5109129;28;20471;-66
2021/04/09 12:05:20;;;;;;;7.75;3.78;;;;;;;;;;5068894;28;20887;-66
2021/04/09 12:07:46;;;;;;;7.53;3.63;;;;;;;;;;5068089;28;20044;-66
2021/04/09 12:10:33;;;;;;;7.45;3.30;;;;;;;;;;5109315;27;20469;-65
2021/04/09 12:13:00;;;;;;;7.82;3.47;;;;;;;;;;5108492;28;20103;-66
2021/04/09 12:15:28;;;;;;;4.40;2.28;;;;;;;;;;5109297;28;20107;-66
2021/04/09 12:17:56;;;;;;;7.45;4.13;;;;;;;;;;5108692;28;20052;-67
2021/04/09 12:20:24;;;;;;;5.30;2.50;;;;;;;;;;5108406;28;20016;-66
2021/04/09 12:22:50;;;;;;;6.55;3.80;;;;;;;;;;5109333;28;20028;-67
2021/04/09 12:25:17;;;;;;;4.22;2.08;;;;;;;;;;5109477;28;20031;-67
2021/04/09 12:27:44;;;;;;;2.28;1.45;;;;;;;;;;5109619;28;20030;-66
2021/04/09 12:30:11;;;;;;;6.30;3.78;;;;;;;;;;5107707;28;20028;-67
2021/04/09 12:32:38;;;;;;;5.80;2.78;;;;;;;;;;5109682;28;20023;-68
2021/04/09 12:35:05;;;;;;;5.00;1.92;;;;;;;;;;5109735;28;20021;-67
2021/04/09 12:37:31;;;;;;;6.18;3.03;;;;;;;;;;5109393;28;20035;-68
2021/04/09 12:39:57;;;;;;;7.75;2.42;;;;;;;;;;5109396;28;20020;-67
2021/04/09 12:42:24;;;;;;;9.93;3.28;;;;;;;;;;5109223;28;20468;-67
2021/04/09 12:44:53;;;;;;;6.20;2.47;;;;;;;;;;5108923;28;20036;-67
2021/04/09 12:47:21;;;;;;;8.40;3.10;;;;;;;;;;5109149;28;20027;-68
2021/04/09 12:49:47;;;;;;;5.20;2.38;;;;;;;;;;5107779;28;20466;-67
2021/04/09 12:52:14;;;;;;;6.40;2.90;;;;;;;;;;5108801;28;20020;-67
2021/04/09 12:54:40;;;;;;;4.38;2.42;;;;;;;;;;5107869;28;20062;-68
2021/04/09 12:57:07;;;;;;;7.63;3.70;;;;;;;;;;5106463;28;20019;-68
2021/04/09 12:59:46;;;;;;;10.75;5.03;;;;;;;;;;5109933;27;20377;-67
2021/04/09 13:02:12;;;;;;;12.20;4.97;;;;;;;;;;5110165;28;20077;-67
2021/04/09 13:04:39;;;;;;;7.50;3.10;;;;;;;;;;5109394;28;20028;-66
2021/04/09 13:07:05;;;;;;;7.20;2.60;;;;;;;;;;5110211;28;20472;-66
2021/04/09 13:09:31;;;;;;;5.57;2.40;;;;;;;;;;5110097;28;20028;-67
2021/04/09 13:11:57;;;;;;;6.75;3.20;;;;;;;;;;5108425;28;20032;-67
2021/04/09 13:14:23;;;;;;;7.72;3.25;;;;;;;;;;5110300;28;20028;-68
2021/04/09 13:16:50;;;;;;;5.95;2.75;;;;;;;;;;5110168;28;20095;-67
2021/04/09 13:19:16;;;;;;;8.07;3.22;;;;;;;;;;5109600;28;20035;-66
2021/04/09 13:21:43;;;;;;;7.68;3.25;;;;;;;;;;5110248;28;20020;-67
2021/04/09 13:24:11;;;;;;;6.90;3.85;;;;;;;;;;5109931;28;20099;-66
2021/04/09 13:26:37;;;;;;;10.38;4.10;;;;;;;;;;5109603;28;20493;-67
2021/04/09 13:29:03;;;;;;;8.15;4.53;;;;;;;;;;5108517;28;20020;-67
2021/04/09 13:31:29;;;;;;;6.93;2.90;;;;;;;;;;5109977;28;20024;-67
2021/04/09 13:35:43;;;;;;;5.60;2.42;;;;;;;;;;5090014;27;20416;-67
2021/04/09 13:38:11;;;;;;;4.22;1.70;;;;;;;;;;5090060;28;20029;-66
2021/04/09 13:40:37;;;;;;;3.78;1.80;;;;;;;;;;5089553;28;20020;-66
2021/04/09 13:43:04;;;;;;;8.80;3.47;;;;;;;;;;5088594;28;20036;-66
2021/04/09 13:45:30;;;;;;;8.18;3.22;;;;;;;;;;5089762;28;20086;-66
2021/04/09 13:47:56;;;;;;;6.80;3.35;;;;;;;;;;5088130;28;20028;-66
2021/04/09 13:51:11;;;;;;;4.10;2.05;;;;;;;;;;5110443;27;20385;-66
2021/04/09 13:53:38;;;;;;;4.03;2.00;;;;;;;;;;5110445;28;20051;-66
2021/04/09 13:56:07;;;;;;;7.07;3.55;;;;;;;;;;5109960;28;20065;-68
2021/04/09 13:58:35;;;;;;;7.55;3.30;;;;;;;;;;5110196;28;20081;-67
2021/04/09 14:01:02;;;;;;;5.55;3.00;;;;;;;;;;5109792;28;20537;-66
2021/04/09 14:03:28;;;;;;;6.43;2.85;;;;;;;;;;5110083;28;20027;-66
2021/04/09 14:05:54;;;;;;;7.05;3.17;;;;;;;;;;5108877;28;20027;-66
2021/04/09 14:08:22;;;;;;;4.07;1.83;;;;;;;;;;5109653;28;20104;-66
2021/04/09 14:10:48;;;;;;;4.35;2.05;;;;;;;;;;5108642;28;20089;-66
2021/04/09 14:13:16;;;;;;;4.15;2.10;;;;;;;;;;5110123;28;20042;-66
2021/04/09 14:15:42;;;;;;;6.20;3.47;;;;;;;;;;5109658;28;20028;-66
2021/04/09 14:18:08;;;;;;;4.63;2.72;;;;;;;;;;5109850;28;20016;-67
2021/04/09 14:20:34;;;;;;;7.18;4.45;;;;;;;;;;5109841;28;20095;-66
2021/04/09 14:23:01;;;;;;;8.07;3.70;;;;;;;;;;5109400;28;20121;-66
2021/04/09 14:25:27;;;;;;;9.15;4.40;;;;;;;;;;5109793;28;20059;-66
2021/04/09 14:27:53;;;;;;;9.23;4.22;;;;;;;;;;5109646;28;20117;-66
2021/04/09 14:30:21;;;;;;;4.78;2.60;;;;;;;;;;5109193;28;20372;-67
2021/04/09 14:32:50;;;;;;;6.45;2.90;;;;;;;;;;5109765;28;20536;-67
2021/04/09 14:35:16;;;;;;;6.90;3.50;;;;;;;;;;5109558;28;20034;-66
2021/04/09 14:37:42;;;;;;;5.85;3.35;;;;;;;;;;5109061;28;20030;-66
2021/04/09 14:40:13;;;;;;;12.18;7.25;;;;;;;;;;5109296;28;20019;-66
2021/04/09 14:42:39;;;;;;;7.80;4.25;;;;;;;;;;5109357;28;20391;-66
2021/04/09 14:45:07;;;;;;;8.00;3.80;;;;;;;;;;5108824;28;20016;-66
2021/04/09 14:47:33;;;;;;;8.57;3.65;;;;;;;;;;5107986;28;20081;-66
2021/04/09 14:49:59;;;;;;;7.40;4.40;;;;;;;;;;5108490;28;20058;-66
2021/04/09 14:52:26;;;;;;;7.35;4.20;;;;;;;;;;5107719;28;20023;-67
2021/04/09 14:54:52;;;;;;;11.20;6.18;;;;;;;;;;5109180;28;20075;-66
2021/04/09 14:57:19;;;;;;;9.65;5.00;;;;;;;;;;5108595;28;20111;-67
2021/04/09 14:59:45;;;;;;;7.85;3.88;;;;;;;;;;5108958;28;20091;-67
2021/04/09 15:02:12;;;;;;;10.10;3.70;;;;;;;;;;5095916;28;20645;-67
2021/04/09 15:04:38;;;;;;;6.30;2.90;;;;;;;;;;5093608;28;20031;-67
2021/04/09 15:07:04;;;;;;;9.52;4.75;;;;;;;;;;5093885;28;20016;-67
2021/04/09 15:09:30;;;;;;;7.68;2.88;;;;;;;;;;5095028;28;20027;-68
2021/04/09 15:11:56;;;;;;;5.32;2.50;;;;;;;;;;5094962;28;20024;-68
2021/04/09 15:14:23;;;;;;;7.18;3.42;;;;;;;;;;5095453;28;20095;-68
2021/04/09 15:16:49;;;;;;;10.73;4.07;;;;;;;;;;5093848;28;20365;-67
2021/04/09 15:19:15;;;;;;;8.15;3.88;;;;;;;;;;5094647;28;20028;-67
2021/04/09 15:21:41;;;;;;;13.77;5.32;;;;;;;;;;5093676;28;20023;-67
2021/04/09 15:24:07;;;;;;;6.55;3.22;;;;;;;;;;5093742;28;20078;-67
2021/04/09 15:26:34;;;;;;;6.35;3.15;;;;;;;;;;5094887;28;20024;-67